Time;durP1;ratioP1;P1;durP2;ratioP2;P2;SDS_P1;SDS_P2;PMS_P1;PMS_P2;Temp;Humidity;BMP_temperature;BMP_pressure;BME280_temperature;BME280_humidity;BME280_pressure;Samples;Min_cycle;Max_cycle;Signal;HPM_P1;HPM_P2
2023/08/19 00:01:29;;;;;;;14.07;12.68;;;23.10;98.60;;;;;;5034323;28;20419;-79
2023/08/19 00:03:55;;;;;;;14.80;13.38;;;23.10;98.70;;;;;;5034595;28;20049;-79
2023/08/19 00:06:40;;;;;;;14.23;12.82;;;23.00;98.70;;;;;;5034388;28;20033;-79
2023/08/19 00:09:08;;;;;;;14.73;13.25;;;23.00;98.80;;;;;;5034830;28;20503;-79
2023/08/19 00:11:38;;;;;;;14.65;13.25;;;23.00;98.70;;;;;;5034579;28;20081;-79
2023/08/19 00:14:05;;;;;;;13.80;12.50;;;22.90;98.70;;;;;;5033301;28;20042;-79
2023/08/19 00:16:32;;;;;;;14.48;13.15;;;23.00;98.70;;;;;;5034379;28;20056;-79
2023/08/19 00:18:58;;;;;;;14.77;13.27;;;22.90;98.70;;;;;;5034492;28;20076;-79
2023/08/19 00:21:23;;;;;;;15.05;13.65;;;22.90;98.70;;;;;;5034427;28;20463;-79
2023/08/19 00:23:50;;;;;;;14.95;13.55;;;22.80;98.70;;;;;;5035289;28;20049;-79
2023/08/19 00:26:16;;;;;;;16.30;14.70;;;22.80;98.70;;;;;;5034336;28;20042;-79
2023/08/19 00:28:41;;;;;;;15.32;13.73;;;22.80;98.70;;;;;;5034195;28;20037;-79
2023/08/19 00:31:08;;;;;;;15.40;12.43;;;22.80;98.70;;;;;;5033695;28;20049;-79
2023/08/19 00:33:34;;;;;;;15.90;14.32;;;22.70;98.70;;;;;;5034182;28;20099;-79
2023/08/19 00:36:00;;;;;;;14.48;13.02;;;22.70;98.80;;;;;;5032837;28;20398;-79
2023/08/19 00:38:26;;;;;;;15.10;12.98;;;22.70;98.80;;;;;;5034216;28;20487;-79
2023/08/19 00:40:52;;;;;;;15.65;14.15;;;22.70;98.70;;;;;;5033785;28;20176;-79
2023/08/19 00:43:17;;;;;;;14.60;13.20;;;22.60;98.80;;;;;;5034082;28;20084;-79
2023/08/19 00:45:48;;;;;;;14.77;13.27;;;22.60;98.80;;;;;;5033477;28;20125;-79
2023/08/19 00:48:15;;;;;;;14.27;12.88;;;22.60;98.70;;;;;;5034216;28;20045;-79
2023/08/19 00:50:42;;;;;;;14.32;12.85;;;22.60;98.80;;;;;;5033597;28;20049;-79
2023/08/19 00:53:09;;;;;;;14.52;13.13;;;22.60;98.70;;;;;;5034142;28;20168;-79
2023/08/19 00:55:35;;;;;;;14.35;12.95;;;22.50;98.80;;;;;;5033652;28;20072;-79
2023/08/19 00:58:03;;;;;;;15.40;13.35;;;22.50;98.80;;;;;;5025620;28;20049;-79
2023/08/19 01:00:32;;;;;;;14.52;13.00;;;22.40;98.70;;;;;;5032259;28;20120;-79
2023/08/19 01:02:59;;;;;;;14.32;12.93;;;22.40;98.80;;;;;;5033392;28;20553;-80
2023/08/19 01:05:34;;;;;;;14.55;13.25;;;22.40;98.90;;;;;;5049340;28;20131;-79
2023/08/19 01:08:01;;;;;;;13.77;12.45;;;22.40;98.90;;;;;;5033314;28;20052;-79
2023/08/19 01:10:38;;;;;;;14.77;13.23;;;22.30;98.90;;;;;;5043351;28;20052;-78
2023/08/19 01:13:15;;;;;;;13.40;12.10;;;22.30;98.70;;;;;;5034324;28;20136;-80
2023/08/19 01:15:57;;;;;;;13.80;12.50;;;22.30;98.80;;;;;;5032236;28;20516;-79
2023/08/19 01:18:23;;;;;;;13.52;12.25;;;22.30;98.70;;;;;;5013930;28;20042;-80
2023/08/19 01:20:52;;;;;;;13.70;12.40;;;22.30;99.10;;;;;;5013814;28;20046;-79
2023/08/19 01:23:33;;;;;;;14.02;12.73;;;22.30;99.10;;;;;;5056532;28;20034;-79
2023/08/19 01:25:59;;;;;;;13.60;12.30;;;22.20;99.20;;;;;;5033232;28;20045;-79
2023/08/19 01:28:25;;;;;;;13.77;12.35;;;22.20;99.10;;;;;;5033034;28;20051;-79
2023/08/19 01:30:50;;;;;;;14.15;12.77;;;22.20;99.20;;;;;;5033029;28;20124;-79
2023/08/19 01:33:17;;;;;;;13.57;12.25;;;22.20;99.20;;;;;;5034695;28;20049;-79
2023/08/19 01:36:07;;;;;;;13.20;11.98;;;22.20;99.10;;;;;;5050835;28;20049;-79
2023/08/19 01:38:45;;;;;;;13.90;12.60;;;22.20;99.00;;;;;;5033156;28;20130;-79
2023/08/19 01:41:14;;;;;;;13.52;12.32;;;22.10;99.20;;;;;;5032949;28;20056;-79
2023/08/19 01:43:40;;;;;;;13.32;12.07;;;22.10;99.20;;;;;;5032848;28;20042;-80
2023/08/19 01:46:06;;;;;;;13.43;12.13;;;22.10;99.30;;;;;;5032770;28;20037;-80
2023/08/19 01:48:32;;;;;;;13.25;11.98;;;22.10;99.20;;;;;;5032586;28;20411;-79
2023/08/19 01:50:57;;;;;;;14.00;12.60;;;22.10;99.20;;;;;;5032664;28;20084;-79
2023/08/19 01:53:23;;;;;;;13.38;12.07;;;22.00;99.20;;;;;;5032460;28;20056;-79
2023/08/19 01:55:49;;;;;;;13.35;12.05;;;22.00;99.30;;;;;;5042473;28;20395;-79
2023/08/19 01:58:14;;;;;;;13.93;12.55;;;22.00;99.30;;;;;;5040801;28;20053;-79
2023/08/19 02:00:40;;;;;;;13.00;11.75;;;22.00;99.30;;;;;;5030913;28;20418;-79
2023/08/19 02:03:07;;;;;;;13.95;12.65;;;22.00;99.20;;;;;;5032442;28;20048;-79
2023/08/19 02:05:32;;;;;;;14.23;12.65;;;21.90;99.30;;;;;;5031973;28;20194;-79
2023/08/19 02:07:58;;;;;;;12.63;11.43;;;21.90;99.30;;;;;;5031068;28;20539;-80
2023/08/19 02:10:24;;;;;;;13.70;12.40;;;21.90;99.20;;;;;;5031450;28;20384;-80
2023/08/19 02:12:49;;;;;;;13.82;12.00;;;21.90;99.20;;;;;;5032693;28;20052;-80
2023/08/19 02:15:15;;;;;;;13.73;12.18;;;21.90;99.00;;;;;;5032471;28;20037;-79
2023/08/19 02:17:41;;;;;;;12.52;11.32;;;21.90;99.10;;;;;;5032381;28;20049;-79
2023/08/19 02:20:07;;;;;;;12.75;11.55;;;21.80;99.10;;;;;;5033002;28;20077;-80
2023/08/19 02:22:32;;;;;;;13.50;12.10;;;21.80;99.20;;;;;;5033597;28;20049;-79
2023/08/19 02:24:58;;;;;;;13.57;12.18;;;21.80;99.10;;;;;;5036710;28;20034;-79
2023/08/19 02:27:24;;;;;;;12.35;11.15;;;21.80;99.20;;;;;;5036440;28;20041;-79
2023/08/19 02:29:50;;;;;;;12.38;11.18;;;21.70;99.20;;;;;;5041472;28;20422;-80
2023/08/19 02:32:15;;;;;;;12.27;11.07;;;21.80;99.10;;;;;;5037540;28;20128;-79
2023/08/19 02:34:41;;;;;;;12.48;11.18;;;21.70;99.00;;;;;;5041485;28;20059;-79
2023/08/19 02:37:09;;;;;;;12.75;11.45;;;21.70;99.00;;;;;;5038436;28;20056;-79
2023/08/19 02:39:34;;;;;;;13.38;11.98;;;21.70;99.00;;;;;;5035082;28;20056;-80
2023/08/19 02:42:00;;;;;;;12.75;11.55;;;21.70;99.00;;;;;;5036481;28;20053;-79
2023/08/19 02:44:25;;;;;;;13.30;11.90;;;21.70;99.10;;;;;;5036061;28;20446;-79
2023/08/19 02:46:51;;;;;;;13.27;11.88;;;21.70;99.20;;;;;;5035210;28;20052;-79
2023/08/19 02:49:17;;;;;;;13.85;12.55;;;21.60;99.20;;;;;;5037265;28;20034;-79
2023/08/19 02:51:42;;;;;;;12.95;11.65;;;21.60;99.30;;;;;;5042727;28;20037;-79
2023/08/19 02:54:09;;;;;;;14.65;13.15;;;21.60;99.30;;;;;;5040248;28;20045;-79
2023/08/19 02:56:35;;;;;;;13.25;11.85;;;21.60;99.40;;;;;;5037057;28;20049;-80
2023/08/19 02:59:04;;;;;;;13.23;11.82;;;21.60;99.30;;;;;;5035796;28;20049;-79
2023/08/19 03:01:29;;;;;;;12.40;11.20;;;21.60;99.30;;;;;;5035428;28;20048;-79
2023/08/19 03:03:55;;;;;;;12.57;11.38;;;21.60;99.30;;;;;;5051614;28;20045;-79
2023/08/19 03:06:20;;;;;;;14.63;13.23;;;21.60;99.30;;;;;;5035340;28;20085;-79
2023/08/19 03:08:46;;;;;;;13.20;11.93;;;21.60;99.40;;;;;;5035251;28;20041;-80
2023/08/19 03:11:12;;;;;;;12.80;11.57;;;21.50;99.40;;;;;;5034967;28;20484;-80
2023/08/19 03:13:37;;;;;;;12.70;11.40;;;21.50;99.40;;;;;;5034924;28;20052;-79
2023/08/19 03:16:06;;;;;;;12.57;11.27;;;21.50;99.40;;;;;;5035007;28;20052;-79
2023/08/19 03:18:31;;;;;;;12.80;11.50;;;21.50;99.70;;;;;;5047843;28;20045;-79
2023/08/19 03:21:00;;;;;;;16.35;13.18;;;21.40;99.30;;;;;;5048298;28;20048;-79
2023/08/19 03:23:27;;;;;;;13.13;11.82;;;21.40;99.60;;;;;;5042854;28;20149;-79
2023/08/19 03:25:54;;;;;;;14.25;12.75;;;21.40;99.50;;;;;;5035658;28;20132;-79
2023/08/19 03:28:20;;;;;;;15.82;14.10;;;21.40;99.50;;;;;;5034092;28;20475;-79
2023/08/19 03:30:45;;;;;;;14.18;12.77;;;21.40;99.60;;;;;;5033952;28;20084;-79
2023/08/19 03:33:11;;;;;;;16.35;13.68;;;21.40;99.60;;;;;;5038931;28;20061;-79
2023/08/19 03:35:39;;;;;;;13.27;11.98;;;21.40;99.60;;;;;;5035205;28;20526;-79
2023/08/19 03:38:05;;;;;;;11.65;10.55;;;21.30;99.50;;;;;;5035315;28;20060;-79
2023/08/19 03:40:31;;;;;;;12.57;11.20;;;21.30;99.60;;;;;;5035024;28;20049;-79
2023/08/19 03:42:56;;;;;;;15.15;13.25;;;21.40;99.30;;;;;;5035180;28;20160;-79
2023/08/19 03:45:22;;;;;;;12.95;11.43;;;21.30;99.40;;;;;;5033107;28;20061;-79
2023/08/19 03:47:48;;;;;;;12.93;11.63;;;21.30;99.50;;;;;;5032171;28;20045;-79
2023/08/19 03:50:13;;;;;;;11.82;10.63;;;21.30;99.50;;;;;;5034628;28;20048;-79
2023/08/19 03:52:39;;;;;;;12.57;10.75;;;21.30;99.40;;;;;;5034482;28;20041;-79
2023/08/19 03:55:06;;;;;;;12.52;11.23;;;21.30;99.40;;;;;;5032867;28;20037;-79
2023/08/19 03:57:32;;;;;;;13.50;12.15;;;21.30;99.40;;;;;;5033649;28;20037;-79
2023/08/19 03:59:57;;;;;;;12.30;10.82;;;21.20;99.50;;;;;;5034157;28;20049;-80
2023/08/19 04:02:23;;;;;;;12.25;11.05;;;21.20;99.30;;;;;;5034082;28;20049;-79
2023/08/19 04:05:00;;;;;;;12.80;11.38;;;21.20;99.50;;;;;;5034272;28;20056;-79
2023/08/19 04:07:26;;;;;;;12.30;10.93;;;21.20;99.70;;;;;;5034104;28;20042;-79
2023/08/19 04:09:54;;;;;;;11.93;10.73;;;21.20;99.40;;;;;;5034259;28;20057;-79
2023/08/19 04:12:20;;;;;;;12.82;11.48;;;21.10;99.30;;;;;;5034149;28;20041;-79
2023/08/19 04:14:46;;;;;;;13.38;10.95;;;21.10;99.50;;;;;;5032046;28;20052;-79
2023/08/19 04:17:12;;;;;;;11.88;10.63;;;21.10;99.50;;;;;;5034377;28;20056;-79
2023/08/19 04:19:38;;;;;;;12.30;11.10;;;21.20;99.20;;;;;;5033814;28;20049;-79
2023/08/19 04:22:03;;;;;;;12.00;10.80;;;21.10;99.10;;;;;;5033525;28;20395;-80
2023/08/19 04:24:29;;;;;;;10.90;9.77;;;21.10;99.10;;;;;;5034436;28;20045;-80
2023/08/19 04:26:55;;;;;;;11.30;10.20;;;21.10;98.90;;;;;;5033229;28;20048;-80
2023/08/19 04:29:20;;;;;;;12.07;9.85;;;21.10;99.10;;;;;;5033088;28;20049;-79
2023/08/19 04:31:46;;;;;;;11.65;10.25;;;21.10;98.80;;;;;;5049900;28;20053;-79
2023/08/19 04:34:12;;;;;;;11.95;10.40;;;21.10;98.70;;;;;;5034446;28;20518;-80
2023/08/19 04:36:37;;;;;;;12.18;10.88;;;21.10;98.90;;;;;;5034212;28;20045;-79
2023/08/19 04:39:07;;;;;;;11.05;9.95;;;21.10;99.20;;;;;;5034242;28;20103;-79
2023/08/19 04:41:33;;;;;;;11.55;10.35;;;21.10;99.20;;;;;;5034125;28;20503;-79
2023/08/19 04:43:59;;;;;;;12.77;10.48;;;21.10;99.20;;;;;;5032984;28;20428;-79
2023/08/19 04:46:24;;;;;;;11.10;9.88;;;21.10;99.30;;;;;;5034044;28;20092;-79
2023/08/19 04:48:50;;;;;;;12.18;10.88;;;21.10;99.50;;;;;;5034077;28;20128;-79
2023/08/19 04:51:15;;;;;;;13.23;11.10;;;21.10;99.50;;;;;;5033701;28;20045;-79
2023/08/19 04:53:41;;;;;;;11.70;10.50;;;21.10;99.70;;;;;;5033481;28;20128;-79
2023/08/19 04:56:07;;;;;;;14.20;11.38;;;21.10;99.50;;;;;;5033370;28;20054;-79
2023/08/19 04:58:32;;;;;;;12.30;10.98;;;21.10;99.70;;;;;;5033757;28;20559;-79
2023/08/19 05:00:58;;;;;;;12.57;10.30;;;21.10;99.80;;;;;;5032548;28;20053;-79
2023/08/19 05:03:24;;;;;;;18.13;11.75;;;21.10;99.70;;;;;;5033000;28;20060;-78
2023/08/19 05:05:50;;;;;;;11.70;10.48;;;21.10;99.90;;;;;;5032341;28;20052;-78
2023/08/19 05:08:15;;;;;;;11.25;9.93;;;21.10;99.90;;;;;;5033665;28;20042;-79
2023/08/19 05:10:41;;;;;;;13.73;10.10;;;21.10;99.90;;;;;;5032058;28;20407;-79
2023/08/19 05:13:07;;;;;;;11.45;9.80;;;21.10;99.90;;;;;;5033058;28;20075;-79
2023/08/19 05:15:32;;;;;;;11.18;9.40;;;21.10;99.90;;;;;;5032242;28;20435;-79
2023/08/19 05:17:58;;;;;;;13.05;10.57;;;21.10;99.90;;;;;;5032924;28;20083;-79
2023/08/19 05:20:23;;;;;;;16.45;11.82;;;21.20;99.90;;;;;;5032399;28;20495;-79
2023/08/19 05:22:49;;;;;;;13.43;11.18;;;21.20;99.90;;;;;;5032826;28;20464;-79
2023/08/19 05:25:15;;;;;;;17.20;10.35;;;21.20;99.90;;;;;;5033333;28;20041;-79
2023/08/19 05:27:40;;;;;;;13.93;10.60;;;21.20;99.90;;;;;;5033093;28;20049;-79
2023/08/19 05:30:10;;;;;;;12.18;10.20;;;21.20;99.90;;;;;;5033158;28;20037;-78
2023/08/19 05:32:35;;;;;;;10.88;9.70;;;21.20;99.90;;;;;;5033010;28;20092;-79
2023/08/19 05:35:01;;;;;;;13.35;9.50;;;21.20;99.90;;;;;;5033656;28;20041;-79
2023/08/19 05:37:26;;;;;;;13.93;10.40;;;21.20;99.90;;;;;;5031705;28;20041;-79
2023/08/19 05:39:52;;;;;;;13.57;9.93;;;21.30;99.90;;;;;;5051395;28;20045;-79
2023/08/19 05:42:18;;;;;;;12.30;9.77;;;21.30;99.90;;;;;;5033586;28;20129;-79
2023/08/19 05:44:43;;;;;;;11.52;10.18;;;21.30;99.90;;;;;;5032279;28;20045;-79
2023/08/19 05:47:09;;;;;;;13.32;10.07;;;21.30;99.90;;;;;;5032393;28;20049;-79
2023/08/19 05:49:35;;;;;;;10.95;9.13;;;21.30;99.90;;;;;;5032458;28;20056;-79
2023/08/19 05:52:01;;;;;;;16.00;10.07;;;21.30;99.90;;;;;;5032749;28;20476;-79
2023/08/19 05:54:27;;;;;;;11.48;9.00;;;21.40;99.90;;;;;;5047977;28;20132;-79
2023/08/19 05:56:53;;;;;;;11.35;9.23;;;21.40;99.90;;;;;;5032754;28;20041;-79
2023/08/19 05:59:18;;;;;;;11.48;9.15;;;21.40;99.90;;;;;;5032961;28;20068;-79
2023/08/19 06:01:44;;;;;;;13.80;9.85;;;21.40;99.90;;;;;;5032027;28;20049;-79
2023/08/19 06:04:09;;;;;;;10.90;9.05;;;21.40;99.90;;;;;;5032491;28;20043;-79
2023/08/19 06:06:36;;;;;;;11.65;9.07;;;21.40;99.90;;;;;;5048513;28;20045;-79
2023/08/19 06:09:02;;;;;;;13.82;9.68;;;21.40;99.90;;;;;;5032275;28;20164;-79
2023/08/19 06:11:28;;;;;;;11.75;8.98;;;21.40;99.90;;;;;;5032864;28;20116;-79
2023/08/19 06:13:53;;;;;;;12.77;8.68;;;21.50;99.90;;;;;;5031642;28;20175;-79
2023/08/19 06:16:19;;;;;;;11.10;8.95;;;21.50;99.90;;;;;;5031191;28;20034;-79
2023/08/19 06:18:45;;;;;;;11.70;8.80;;;21.50;99.90;;;;;;5032353;28;20192;-79
2023/08/19 06:21:12;;;;;;;12.45;8.68;;;21.60;99.90;;;;;;5033376;28;20040;-79
2023/08/19 06:23:38;;;;;;;10.90;8.52;;;21.60;99.90;;;;;;5031256;28;20049;-79
2023/08/19 06:26:03;;;;;;;15.27;9.25;;;21.60;99.90;;;;;;5032542;28;20053;-78
2023/08/19 06:28:29;;;;;;;13.48;9.20;;;21.60;99.90;;;;;;5032388;28;20046;-79
2023/08/19 06:30:56;;;;;;;13.48;8.65;;;21.60;99.90;;;;;;5031767;28;20037;-79
2023/08/19 06:33:22;;;;;;;10.65;8.88;;;21.70;99.90;;;;;;5052639;28;20511;-79
2023/08/19 06:35:49;;;;;;;10.23;8.27;;;21.70;99.90;;;;;;5034290;28;20128;-79
2023/08/19 06:38:18;;;;;;;10.95;8.05;;;21.70;99.90;;;;;;5032215;28;20051;-79
2023/08/19 06:41:00;;;;;;;13.73;8.40;;;21.70;99.90;;;;;;5032298;28;20422;-79
2023/08/19 06:43:27;;;;;;;11.65;8.05;;;21.70;99.90;;;;;;5030586;28;20136;-79
2023/08/19 06:45:55;;;;;;;11.82;7.95;;;21.70;99.90;;;;;;5038162;28;20502;-79
2023/08/19 06:48:24;;;;;;;14.10;8.93;;;21.70;99.90;;;;;;5029920;28;20052;-79
2023/08/19 06:50:51;;;;;;;12.20;8.50;;;21.80;99.90;;;;;;5030687;28;20136;-79
2023/08/19 06:53:17;;;;;;;10.23;8.18;;;21.80;99.90;;;;;;5031690;28;20042;-79
2023/08/19 06:56:07;;;;;;;14.13;8.68;;;21.80;99.90;;;;;;5032012;28;20056;-79
2023/08/19 06:58:41;;;;;;;12.68;8.40;;;21.80;99.90;;;;;;5032711;28;20066;-78
2023/08/19 07:01:12;;;;;;;12.77;7.97;;;21.80;99.90;;;;;;5027403;28;20041;-79
2023/08/19 07:03:39;;;;;;;11.63;8.10;;;21.80;99.90;;;;;;5033757;28;20042;-79
2023/08/19 07:06:06;;;;;;;14.48;7.68;;;21.90;99.90;;;;;;5048057;28;20045;-79
2023/08/19 07:08:36;;;;;;;12.65;7.43;;;21.90;99.90;;;;;;5054422;28;20411;-79
2023/08/19 07:11:02;;;;;;;9.85;7.43;;;21.90;99.90;;;;;;5038097;28;20037;-79
2023/08/19 07:13:28;;;;;;;10.88;7.78;;;21.90;99.90;;;;;;5035674;28;20049;-79
2023/08/19 07:16:01;;;;;;;10.65;7.45;;;21.90;99.90;;;;;;5034299;28;20050;-79
2023/08/19 07:18:30;;;;;;;10.25;7.35;;;21.90;99.90;;;;;;5035280;28;20156;-79
2023/08/19 07:20:56;;;;;;;12.73;8.02;;;22.00;99.90;;;;;;5050800;28;20057;-79
2023/08/19 07:23:25;;;;;;;11.63;7.05;;;22.00;99.90;;;;;;5035473;28;20510;-78
2023/08/19 07:25:51;;;;;;;10.75;7.28;;;22.00;99.90;;;;;;5039050;28;20046;-79
2023/08/19 07:28:18;;;;;;;12.57;7.80;;;22.00;99.90;;;;;;5035426;28;20040;-79
2023/08/19 07:30:44;;;;;;;14.48;7.05;;;22.10;99.90;;;;;;5035154;28;20065;-79
2023/08/19 07:33:11;;;;;;;11.30;7.05;;;22.10;99.90;;;;;;5050724;28;20439;-79
2023/08/19 07:35:38;;;;;;;11.45;7.60;;;22.10;99.90;;;;;;5036269;28;20057;-79
2023/08/19 07:38:05;;;;;;;9.32;6.63;;;22.20;99.90;;;;;;5054691;28;20072;-79
2023/08/19 07:40:31;;;;;;;12.25;7.88;;;22.20;99.90;;;;;;5020448;28;20450;-79
2023/08/19 07:42:56;;;;;;;12.07;7.40;;;22.20;99.90;;;;;;5037512;28;20543;-79
2023/08/19 07:45:22;;;;;;;10.57;7.03;;;22.20;99.90;;;;;;5034839;28;20049;-79
2023/08/19 07:47:48;;;;;;;13.73;8.07;;;22.30;99.90;;;;;;5034244;28;20049;-79
2023/08/19 07:50:13;;;;;;;9.30;7.50;;;22.30;99.90;;;;;;5033506;28;20259;-79
2023/08/19 07:52:39;;;;;;;12.10;7.25;;;22.30;99.90;;;;;;5037204;28;20045;-79
2023/08/19 07:55:05;;;;;;;13.45;9.45;;;22.30;99.90;;;;;;5034324;28;20056;-78
2023/08/19 07:57:31;;;;;;;17.65;8.55;;;22.40;99.90;;;;;;5035204;28;20127;-79
2023/08/19 07:59:57;;;;;;;9.57;7.15;;;22.40;99.90;;;;;;5033722;28;20072;-79
2023/08/19 08:02:23;;;;;;;10.80;6.88;;;22.40;99.90;;;;;;5039373;28;20075;-80
2023/08/19 08:04:49;;;;;;;12.32;7.68;;;22.40;99.90;;;;;;5052715;28;20115;-79
2023/08/19 08:07:14;;;;;;;9.82;6.60;;;22.50;99.90;;;;;;5035539;28;20132;-79
2023/08/19 08:09:41;;;;;;;11.05;6.70;;;22.50;99.90;;;;;;5038834;28;20046;-80
2023/08/19 08:12:07;;;;;;;13.05;6.60;;;22.50;99.90;;;;;;5034460;28;20451;-81
2023/08/19 08:14:33;;;;;;;10.13;6.35;;;22.60;99.90;;;;;;5032502;28;20045;-81
2023/08/19 08:16:58;;;;;;;9.52;6.28;;;22.60;99.90;;;;;;5028632;28;20048;-81
2023/08/19 08:19:25;;;;;;;10.43;6.00;;;22.70;99.90;;;;;;5030328;28;20046;-81
2023/08/19 08:21:52;;;;;;;11.15;6.25;;;22.70;99.90;;;;;;5018898;28;20049;-80
2023/08/19 08:24:19;;;;;;;10.70;6.32;;;22.70;99.90;;;;;;5020378;28;20053;-81
2023/08/19 08:26:44;;;;;;;9.30;6.20;;;22.70;99.90;;;;;;5029833;28;20053;-81
2023/08/19 08:29:11;;;;;;;8.75;6.07;;;22.80;99.90;;;;;;5038858;28;20038;-81
2023/08/19 08:31:37;;;;;;;9.85;6.25;;;22.80;99.90;;;;;;5026199;28;20045;-82
2023/08/19 08:34:04;;;;;;;13.23;6.30;;;22.80;99.90;;;;;;5014838;28;20045;-81
2023/08/19 08:36:29;;;;;;;12.25;6.63;;;22.90;99.90;;;;;;5020040;28;20058;-81
2023/08/19 08:38:55;;;;;;;10.60;5.88;;;22.90;99.90;;;;;;5034168;28;20480;-81
2023/08/19 08:41:22;;;;;;;8.80;5.70;;;22.90;99.90;;;;;;5041227;28;20037;-81
2023/08/19 08:43:48;;;;;;;10.25;6.63;;;23.00;99.90;;;;;;5027954;28;20050;-81
2023/08/19 08:46:18;;;;;;;11.90;5.82;;;23.00;99.90;;;;;;5026233;28;20547;-82
2023/08/19 08:48:45;;;;;;;8.88;5.90;;;23.10;99.90;;;;;;5031580;28;20057;-81
2023/08/19 08:51:14;;;;;;;10.10;5.95;;;23.10;99.90;;;;;;5027508;28;20411;-80
2023/08/19 08:53:39;;;;;;;9.90;5.82;;;23.10;99.90;;;;;;5036040;28;20037;-80
2023/08/19 08:56:06;;;;;;;9.15;5.97;;;23.20;99.90;;;;;;5051845;28;20094;-82
2023/08/19 08:58:32;;;;;;;10.48;6.13;;;23.20;99.90;;;;;;5043705;28;20107;-81
2023/08/19 09:01:00;;;;;;;12.05;6.28;;;23.30;99.90;;;;;;5032504;28;20049;-81
2023/08/19 09:03:30;;;;;;;10.63;5.97;;;23.40;99.90;;;;;;5033135;28;20044;-81
2023/08/19 09:06:00;;;;;;;11.15;6.40;;;23.40;99.90;;;;;;5033721;28;20092;-81
2023/08/19 09:08:33;;;;;;;9.48;6.22;;;23.50;99.90;;;;;;5032128;28;20055;-81
2023/08/19 09:11:00;;;;;;;9.98;6.35;;;23.60;99.90;;;;;;5032711;28;20061;-82
2023/08/19 09:13:27;;;;;;;8.60;6.05;;;23.60;99.90;;;;;;5015543;28;20388;-81
2023/08/19 09:15:54;;;;;;;8.30;5.82;;;23.70;99.90;;;;;;5045838;28;20424;-81
2023/08/19 09:18:20;;;;;;;11.80;6.40;;;23.70;99.90;;;;;;5032721;28;20491;-81
2023/08/19 09:20:47;;;;;;;8.95;5.63;;;23.80;99.90;;;;;;5033405;28;20038;-80
2023/08/19 09:23:13;;;;;;;10.88;5.57;;;23.90;99.90;;;;;;5032481;28;20041;-81
2023/08/19 09:25:40;;;;;;;9.40;6.00;;;23.90;99.90;;;;;;5032956;28;20041;-81
2023/08/19 09:28:07;;;;;;;10.43;6.00;;;24.00;99.90;;;;;;5033268;28;20048;-81
2023/08/19 09:30:33;;;;;;;9.82;5.95;;;24.00;99.90;;;;;;5033032;28;20052;-80
2023/08/19 09:33:00;;;;;;;12.70;5.97;;;24.10;99.70;;;;;;5033026;28;20193;-81
2023/08/19 09:35:37;;;;;;;10.85;6.00;;;24.10;99.90;;;;;;5033977;28;20071;-81
2023/08/19 09:38:03;;;;;;;10.55;5.60;;;24.20;99.70;;;;;;5030788;28;20076;-81
2023/08/19 09:40:30;;;;;;;10.35;5.65;;;24.20;99.80;;;;;;5032889;28;20045;-81
2023/08/19 09:43:00;;;;;;;8.95;5.35;;;24.30;99.50;;;;;;5031609;28;20053;-81
2023/08/19 09:45:27;;;;;;;14.27;5.57;;;24.30;99.80;;;;;;5025896;28;20049;-81
2023/08/19 09:47:56;;;;;;;7.63;5.68;;;24.40;99.90;;;;;;5027793;28;20133;-81
2023/08/19 09:50:23;;;;;;;11.63;5.65;;;24.50;99.70;;;;;;5021371;28;20477;-81
2023/08/19 09:52:57;;;;;;;10.15;5.75;;;24.50;99.50;;;;;;5020457;28;20037;-81
2023/08/19 09:55:28;;;;;;;9.77;5.97;;;24.60;99.50;;;;;;5029364;28;20443;-81
2023/08/19 09:57:54;;;;;;;10.30;6.15;;;24.60;99.30;;;;;;5032201;28;20065;-81
2023/08/19 10:00:21;;;;;;;8.30;5.68;;;24.70;99.10;;;;;;5022854;28;20121;-81
2023/08/19 10:02:54;;;;;;;12.73;6.60;;;24.70;99.20;;;;;;5029620;28;20045;-81
2023/08/19 10:05:20;;;;;;;;;;;24.70;98.90;;;;;;5022090;28;20045;-81
2023/08/19 10:08:26;;;;;;;18.50;7.10;;;24.70;99.10;;;;;;5030471;28;19921;-81
2023/08/19 10:10:52;;;;;;;11.50;6.70;;;24.70;99.40;;;;;;5028170;28;20065;-80
2023/08/19 10:13:21;;;;;;;12.57;7.30;;;24.80;99.60;;;;;;5018751;28;20041;-81
2023/08/19 10:15:47;;;;;;;11.52;7.65;;;24.80;99.80;;;;;;5031455;28;20052;-81
2023/08/19 10:18:41;;;;;;;14.40;7.53;;;24.90;99.90;;;;;;5021665;28;20109;-80
2023/08/19 10:21:12;;;;;;;13.73;7.18;;;24.80;99.90;;;;;;5016940;28;20062;-81
2023/08/19 10:23:41;;;;;;;11.02;7.00;;;24.80;99.90;;;;;;5032569;28;20462;-81
2023/08/19 10:26:07;;;;;;;10.75;7.07;;;24.90;99.90;;;;;;5032789;28;20553;-81
2023/08/19 10:28:33;;;;;;;13.75;7.18;;;24.80;99.90;;;;;;5032604;28;20042;-81
2023/08/19 10:31:09;;;;;;;10.02;7.00;;;24.80;99.90;;;;;;5028306;28;20060;-81
2023/08/19 10:33:42;;;;;;;12.73;7.28;;;24.80;99.90;;;;;;5027983;28;20076;-82
2023/08/19 10:36:11;;;;;;;12.77;7.93;;;24.80;99.90;;;;;;5022984;28;20129;-81
2023/08/19 10:38:48;;;;;;;11.25;8.52;;;24.80;99.90;;;;;;5028377;28;20051;-81
2023/08/19 10:41:29;;;;;;;14.38;9.65;;;24.80;99.90;;;;;;5023959;28;20038;-81
2023/08/19 10:44:31;;;;;;;15.73;9.18;;;24.80;99.90;;;;;;5031964;28;20161;-81
2023/08/19 10:47:11;;;;;;;15.30;8.52;;;24.80;99.90;;;;;;5014861;28;20060;-81
2023/08/19 10:49:37;;;;;;;11.10;8.85;;;24.80;99.90;;;;;;5052171;28;20495;-80
2023/08/19 10:52:04;;;;;;;13.85;9.82;;;24.80;99.90;;;;;;5022357;28;20057;-80
2023/08/19 10:54:40;;;;;;;14.95;9.43;;;24.80;99.90;;;;;;5018774;28;20077;-80
2023/08/19 10:57:11;;;;;;;13.27;9.32;;;24.80;99.90;;;;;;5036265;28;20041;-81
2023/08/19 10:59:38;;;;;;;14.05;9.63;;;24.90;99.90;;;;;;5020527;28;20058;-80
2023/08/19 11:02:08;;;;;;;11.73;8.45;;;24.90;99.90;;;;;;5040834;28;20132;-80
2023/08/19 11:04:37;;;;;;;11.15;8.90;;;24.90;99.90;;;;;;5034747;28;20414;-80
2023/08/19 11:07:04;;;;;;;10.98;7.68;;;24.90;99.90;;;;;;5035356;28;20095;-80
2023/08/19 11:09:30;;;;;;;12.63;9.65;;;24.90;99.90;;;;;;5034946;28;20454;-80
2023/08/19 11:11:57;;;;;;;15.52;8.68;;;24.90;99.90;;;;;;5034788;28;20049;-80
2023/08/19 11:14:23;;;;;;;24.40;10.27;;;24.90;99.90;;;;;;5022027;28;20038;-80
2023/08/19 11:16:50;;;;;;;11.85;8.70;;;24.90;99.90;;;;;;5038870;28;20042;-81
2023/08/19 11:19:17;;;;;;;12.93;8.40;;;25.00;99.90;;;;;;5034638;28;20037;-80
2023/08/19 11:21:43;;;;;;;17.95;11.25;;;25.00;99.90;;;;;;5031961;28;20499;-80
2023/08/19 11:24:10;;;;;;;12.95;10.07;;;25.00;99.90;;;;;;5035585;28;20046;-80
2023/08/19 11:26:39;;;;;;;18.15;10.70;;;25.10;99.90;;;;;;5018475;28;20054;-80
2023/08/19 11:29:06;;;;;;;14.77;10.48;;;25.20;99.90;;;;;;5028326;28;20128;-80
2023/08/19 11:31:33;;;;;;;17.13;11.35;;;25.30;99.90;;;;;;5034659;28;20602;-80
2023/08/19 11:33:59;;;;;;;13.88;10.63;;;25.30;99.90;;;;;;5035984;28;20041;-81
2023/08/19 11:36:26;;;;;;;17.63;12.10;;;25.40;99.90;;;;;;5035654;28;20077;-80
2023/08/19 11:38:58;;;;;;;17.58;12.52;;;25.40;99.90;;;;;;5034323;28;20510;-80
2023/08/19 11:41:24;;;;;;;17.40;13.25;;;25.50;99.90;;;;;;5036205;28;20042;-80
2023/08/19 11:43:53;;;;;;;17.52;13.48;;;25.50;99.90;;;;;;5035510;28;20037;-80
2023/08/19 11:46:20;;;;;;;16.65;12.63;;;25.60;99.90;;;;;;5050023;28;20132;-80
2023/08/19 11:48:46;;;;;;;21.20;15.60;;;25.70;99.90;;;;;;5033484;28;20046;-80
2023/08/19 11:51:12;;;;;;;18.10;15.05;;;25.70;99.90;;;;;;5035055;28;20046;-80
2023/08/19 11:53:40;;;;;;;19.00;16.15;;;25.80;99.90;;;;;;5035426;28;20143;-80
2023/08/19 11:56:06;;;;;;;19.92;17.00;;;25.90;99.90;;;;;;5034694;28;20041;-80
2023/08/19 11:58:52;;;;;;;23.27;18.98;;;25.90;99.90;;;;;;5034382;28;20109;-80
2023/08/19 12:01:19;;;;;;;21.70;16.90;;;26.00;99.90;;;;;;5039360;28;20195;-80
2023/08/19 12:03:47;;;;;;;22.35;18.20;;;26.00;99.90;;;;;;5035183;28;20045;-80
2023/08/19 12:06:13;;;;;;;22.95;17.80;;;26.00;99.90;;;;;;5050355;28;20045;-80
2023/08/19 12:08:41;;;;;;;20.70;17.85;;;26.10;99.90;;;;;;5037246;28;20048;-80
2023/08/19 12:11:08;;;;;;;21.65;17.83;;;26.10;99.90;;;;;;5039684;28;20080;-80
2023/08/19 12:13:33;;;;;;;22.45;17.42;;;26.20;99.90;;;;;;5038390;28;20091;-80
2023/08/19 12:15:59;;;;;;;21.20;18.77;;;26.20;99.90;;;;;;5033205;28;20440;-80
2023/08/19 12:18:25;;;;;;;27.13;22.25;;;26.20;99.90;;;;;;5033195;28;20083;-79
2023/08/19 12:20:52;;;;;;;32.40;29.05;;;26.20;99.90;;;;;;5033291;28;20053;-80
2023/08/19 12:23:21;;;;;;;36.17;30.30;;;26.20;99.90;;;;;;5033275;28;20045;-80
2023/08/19 12:25:55;;;;;;;36.53;31.52;;;26.20;99.90;;;;;;5039195;28;20045;-80
2023/08/19 12:28:22;;;;;;;30.52;26.45;;;26.20;99.90;;;;;;5035329;28;20041;-80
2023/08/19 12:30:49;;;;;;;20.55;17.98;;;26.20;99.90;;;;;;5032266;28;20045;-80
2023/08/19 12:33:15;;;;;;;18.02;12.75;;;26.10;99.20;;;;;;5034617;28;20060;-80
2023/08/19 12:35:44;;;;;;;15.32;10.75;;;26.00;98.20;;;;;;5033693;28;20094;-80